Time;durP1;ratioP1;P1;durP2;ratioP2;P2;SDS_P1;SDS_P2;PMS_P1;PMS_P2;Temp;Humidity;BMP_temperature;BMP_pressure;BME280_temperature;BME280_humidity;BME280_pressure;Samples;Min_cycle;Max_cycle;Signal;HPM_P1;HPM_P2
2022/05/08 00:01:48;;;;;;;15.75;5.05;;;6.60;89.10;;;;;;5089842;28;20111;-72
2022/05/08 00:04:14;;;;;;;14.02;4.90;;;6.50;89.10;;;;;;5090101;28;20040;-72
2022/05/08 00:06:39;;;;;;;18.20;5.43;;;6.50;89.20;;;;;;5074123;28;20031;-72
2022/05/08 00:09:05;;;;;;;19.35;5.50;;;6.40;89.20;;;;;;5090730;28;20074;-72
2022/05/08 00:11:30;;;;;;;20.23;6.05;;;6.40;89.00;;;;;;5092368;28;20537;-72
2022/05/08 00:13:56;;;;;;;27.70;5.35;;;6.40;89.20;;;;;;5091425;28;20115;-72
2022/05/08 00:16:22;;;;;;;20.17;5.18;;;6.20;89.20;;;;;;5093287;28;20031;-72
2022/05/08 00:18:48;;;;;;;25.30;5.13;;;6.20;89.40;;;;;;5094164;28;20016;-72
2022/05/08 00:21:13;;;;;;;21.80;5.07;;;6.10;89.20;;;;;;5089430;28;20031;-72
2022/05/08 00:23:39;;;;;;;20.50;5.85;;;6.10;89.50;;;;;;5094543;28;20040;-72
2022/05/08 00:26:07;;;;;;;17.60;5.28;;;6.10;89.60;;;;;;5088766;28;20043;-72
2022/05/08 00:28:35;;;;;;;23.27;6.10;;;6.10;89.80;;;;;;5092030;28;20379;-72
2022/05/08 00:31:00;;;;;;;21.92;5.47;;;6.10;89.70;;;;;;5093227;28;20024;-72
2022/05/08 00:33:26;;;;;;;23.73;5.68;;;6.00;89.60;;;;;;5097411;28;20371;-72
2022/05/08 00:35:51;;;;;;;20.63;5.10;;;6.00;89.60;;;;;;5091865;28;20111;-72
2022/05/08 00:38:17;;;;;;;26.40;5.63;;;5.90;89.70;;;;;;5082973;28;20078;-72
2022/05/08 00:40:42;;;;;;;16.38;5.95;;;5.80;89.90;;;;;;5091873;28;20036;-72
2022/05/08 00:43:38;;;;;;;17.75;5.35;;;5.80;89.90;;;;;;5091675;28;20028;-72
2022/05/08 00:46:11;;;;;;;24.13;5.40;;;5.70;90.10;;;;;;5090551;28;20048;-72
2022/05/08 00:48:37;;;;;;;19.45;5.50;;;5.70;90.30;;;;;;5068487;28;20024;-72
2022/05/08 00:51:12;;;;;;;17.33;5.55;;;5.70;90.30;;;;;;5071555;28;20541;-72
2022/05/08 00:53:40;;;;;;;20.00;5.43;;;5.60;90.40;;;;;;5071684;28;20043;-72
2022/05/08 00:56:08;;;;;;;26.83;5.63;;;5.60;90.60;;;;;;5065469;28;20028;-72
2022/05/08 00:58:35;;;;;;;21.83;6.15;;;5.60;90.70;;;;;;5057406;28;20049;-72
2022/05/08 01:01:01;;;;;;;21.75;5.90;;;5.70;90.70;;;;;;5071949;28;20028;-72
2022/05/08 01:03:26;;;;;;;29.73;6.32;;;5.60;90.70;;;;;;5053158;28;20077;-72
2022/05/08 01:05:55;;;;;;;24.85;6.00;;;5.60;90.70;;;;;;5046514;28;20025;-72
2022/05/08 01:08:22;;;;;;;31.40;5.90;;;5.60;90.90;;;;;;5071320;28;20020;-72
2022/05/08 01:10:48;;;;;;;29.02;5.80;;;5.50;90.90;;;;;;5068364;28;20093;-72
2022/05/08 01:13:14;;;;;;;25.70;6.55;;;5.50;90.80;;;;;;5067559;28;20115;-72
2022/05/08 01:15:47;;;;;;;25.75;6.05;;;5.40;91.10;;;;;;5091289;28;20028;-72
2022/05/08 01:18:14;;;;;;;26.50;6.13;;;5.40;90.90;;;;;;5091362;28;20088;-72
2022/05/08 01:20:42;;;;;;;22.05;6.40;;;5.40;91.00;;;;;;5073049;28;20059;-72
2022/05/08 01:23:08;;;;;;;22.77;6.32;;;5.30;91.00;;;;;;5066318;28;20055;-72
2022/05/08 01:25:35;;;;;;;28.48;6.80;;;5.30;91.10;;;;;;5068406;28;20040;-71
2022/05/08 01:28:03;;;;;;;24.15;7.28;;;5.20;91.10;;;;;;5074123;28;20452;-73
2022/05/08 01:30:29;;;;;;;24.88;6.13;;;5.30;91.20;;;;;;5071224;28;20115;-72
2022/05/08 01:32:58;;;;;;;29.63;6.30;;;5.10;91.10;;;;;;5081575;28;20116;-72
2022/05/08 01:35:24;;;;;;;28.83;6.80;;;5.10;91.00;;;;;;5060539;28;20425;-72
2022/05/08 01:37:49;;;;;;;19.40;5.97;;;5.10;91.10;;;;;;5056232;28;20478;-72
2022/05/08 01:40:17;;;;;;;19.38;5.88;;;5.00;91.10;;;;;;5068566;28;20039;-72
2022/05/08 01:42:42;;;;;;;22.90;6.32;;;5.00;91.30;;;;;;5073158;28;20056;-72
2022/05/08 01:45:08;;;;;;;27.02;6.28;;;5.00;91.30;;;;;;5072455;28;20035;-72
2022/05/08 01:50:19;;;;;;;26.55;6.45;;;5.00;91.50;;;;;;5074204;28;20031;-72
2022/05/08 01:52:44;;;;;;;29.70;7.63;;;4.90;91.60;;;;;;5073067;28;20032;-72
2022/05/08 01:55:10;;;;;;;23.33;6.70;;;4.90;91.70;;;;;;5070638;28;20052;-72
2022/05/08 01:57:35;;;;;;;19.35;6.28;;;4.90;91.80;;;;;;5055009;28;20110;-72
2022/05/08 02:00:01;;;;;;;21.27;6.70;;;4.90;91.90;;;;;;5074441;28;20078;-72
2022/05/08 02:02:27;;;;;;;29.50;7.20;;;4.90;91.70;;;;;;5067799;28;20040;-72
2022/05/08 02:04:52;;;;;;;22.73;6.75;;;4.80;91.80;;;;;;5050653;28;20024;-72
2022/05/08 02:07:18;;;;;;;24.30;6.90;;;4.70;91.60;;;;;;5074429;28;20479;-72
2022/05/08 02:09:44;;;;;;;29.20;7.85;;;4.60;91.50;;;;;;5073958;28;20055;-72
2022/05/08 02:12:10;;;;;;;19.80;8.45;;;4.60;91.50;;;;;;5071120;28;20487;-72
2022/05/08 02:14:35;;;;;;;27.00;8.75;;;4.60;91.40;;;;;;5069571;28;20404;-72
2022/05/08 02:17:03;;;;;;;21.98;8.02;;;4.50;91.50;;;;;;5074623;28;20062;-72
2022/05/08 02:19:28;;;;;;;26.70;7.95;;;4.50;91.50;;;;;;5069808;28;20028;-72
2022/05/08 02:21:54;;;;;;;27.80;7.88;;;4.50;91.60;;;;;;5074398;28;20029;-72
2022/05/08 02:24:19;;;;;;;31.27;8.25;;;4.50;91.70;;;;;;5073915;28;20054;-72
2022/05/08 02:26:44;;;;;;;22.58;7.65;;;4.60;91.80;;;;;;5054581;28;20074;-72
2022/05/08 02:29:10;;;;;;;24.73;8.50;;;4.50;91.80;;;;;;5071159;28;20033;-72
2022/05/08 02:31:36;;;;;;;23.95;7.53;;;4.50;91.90;;;;;;5074688;28;20032;-72
2022/05/08 02:34:02;;;;;;;24.50;7.93;;;4.30;91.60;;;;;;5073633;28;20040;-72
2022/05/08 02:36:27;;;;;;;32.10;7.80;;;4.30;91.60;;;;;;5072734;28;20029;-72
2022/05/08 02:38:53;;;;;;;30.35;7.75;;;4.20;91.60;;;;;;5056346;28;20028;-72
2022/05/08 02:41:18;;;;;;;27.27;7.30;;;4.10;91.60;;;;;;5081313;28;20052;-72
2022/05/08 02:43:44;;;;;;;22.55;7.03;;;4.10;91.80;;;;;;5094081;28;20102;-72
2022/05/08 02:46:09;;;;;;;31.60;8.38;;;4.10;91.80;;;;;;5093502;28;20081;-72
2022/05/08 02:48:35;;;;;;;34.08;7.32;;;4.10;91.80;;;;;;5094201;28;20452;-72
2022/05/08 02:51:01;;;;;;;24.65;7.35;;;4.00;92.00;;;;;;5093670;28;20036;-72
2022/05/08 02:53:26;;;;;;;21.05;7.68;;;4.00;92.10;;;;;;5092401;28;20022;-72
2022/05/08 02:58:36;;;;;;;24.33;6.65;;;3.80;92.10;;;;;;5093135;28;20502;-72
2022/05/08 03:01:06;;;;;;;24.40;7.13;;;3.70;91.90;;;;;;5094311;28;20036;-72
2022/05/08 03:03:32;;;;;;;23.33;7.50;;;3.60;91.90;;;;;;5089199;28;20032;-72
2022/05/08 03:05:57;;;;;;;28.42;7.38;;;3.60;91.90;;;;;;5095408;28;20035;-72
2022/05/08 03:08:23;;;;;;;24.05;7.10;;;3.60;91.90;;;;;;5095194;28;20052;-72
2022/05/08 03:13:35;;;;;;;23.63;7.63;;;3.50;91.90;;;;;;5091788;28;20030;-72
2022/05/08 03:16:02;;;;;;;20.33;7.43;;;3.50;92.00;;;;;;5094614;28;20062;-72
2022/05/08 03:18:27;;;;;;;21.55;7.75;;;3.40;91.80;;;;;;5076404;28;20028;-72
2022/05/08 03:20:53;;;;;;;27.80;8.65;;;3.30;92.00;;;;;;5084688;28;20037;-72
2022/05/08 03:23:18;;;;;;;24.10;7.93;;;3.30;92.10;;;;;;5075408;28;20082;-72
2022/05/08 03:25:44;;;;;;;26.33;7.60;;;3.30;92.20;;;;;;5092390;28;20032;-72
2022/05/08 03:28:12;;;;;;;21.25;7.47;;;3.30;92.30;;;;;;5093382;28;20052;-72
2022/05/08 03:30:38;;;;;;;36.10;8.23;;;3.30;92.40;;;;;;5077337;28;20386;-72
2022/05/08 03:33:06;;;;;;;20.33;7.65;;;3.30;92.60;;;;;;5095193;28;20036;-72
2022/05/08 03:35:32;;;;;;;24.92;7.95;;;3.20;92.50;;;;;;5095280;28;20031;-72
2022/05/08 03:37:58;;;;;;;30.85;8.82;;;3.20;92.60;;;;;;5094692;28;20051;-72
2022/05/08 03:40:26;;;;;;;23.10;7.97;;;3.30;92.70;;;;;;5094970;28;20363;-72
2022/05/08 03:42:52;;;;;;;27.60;7.78;;;3.20;92.70;;;;;;5073418;28;20044;-72
2022/05/08 03:45:18;;;;;;;28.77;7.65;;;3.20;92.70;;;;;;5071986;28;20048;-72
2022/05/08 03:47:44;;;;;;;30.73;8.65;;;3.20;92.70;;;;;;5076658;28;20020;-73
2022/05/08 03:50:09;;;;;;;21.77;8.60;;;3.20;92.80;;;;;;5077520;28;20078;-73
2022/05/08 03:52:35;;;;;;;27.58;8.77;;;3.20;92.80;;;;;;5077457;28;20044;-72
2022/05/08 03:55:02;;;;;;;25.70;8.35;;;3.20;92.70;;;;;;5078950;28;20470;-72
2022/05/08 03:57:27;;;;;;;23.85;8.35;;;3.30;92.70;;;;;;5078381;28;20028;-72
2022/05/08 03:59:53;;;;;;;30.45;8.35;;;3.30;92.80;;;;;;5056041;28;20483;-72
2022/05/08 04:02:18;;;;;;;33.35;9.77;;;3.30;92.60;;;;;;5069836;28;20024;-72
2022/05/08 04:04:44;;;;;;;32.53;9.30;;;3.30;92.70;;;;;;5073841;28;20040;-72
2022/05/08 04:07:09;;;;;;;25.50;8.43;;;3.40;92.60;;;;;;5073704;28;20333;-72
2022/05/08 04:09:35;;;;;;;23.30;8.30;;;3.30;92.50;;;;;;5071740;28;20031;-72
2022/05/08 04:12:00;;;;;;;22.55;8.60;;;3.30;92.60;;;;;;5070238;28;20050;-72
2022/05/08 04:14:26;;;;;;;26.48;8.80;;;3.30;92.50;;;;;;5072655;28;20051;-72
2022/05/08 04:16:51;;;;;;;31.00;8.40;;;3.30;92.60;;;;;;5073398;28;20036;-71
2022/05/08 04:19:17;;;;;;;21.48;8.25;;;3.40;92.60;;;;;;5059490;28;20029;-68
2022/05/08 04:21:42;;;;;;;30.15;8.65;;;3.40;92.60;;;;;;5070297;28;20036;-68
2022/05/08 04:24:17;;;;;;;21.05;6.97;;;3.40;92.40;;;;;;5076502;28;20025;-68
2022/05/08 04:26:43;;;;;;;22.95;7.40;;;3.40;92.50;;;;;;5069296;28;20032;-68
2022/05/08 04:29:08;;;;;;;18.63;8.23;;;3.50;92.60;;;;;;5070735;28;20086;-68
2022/05/08 04:31:34;;;;;;;26.63;8.55;;;3.50;92.60;;;;;;5070736;28;20028;-69
2022/05/08 04:34:01;;;;;;;26.58;8.02;;;3.50;92.60;;;;;;5070668;28;20028;-69
2022/05/08 04:36:26;;;;;;;20.17;8.18;;;3.50;92.50;;;;;;5063888;28;20494;-67
2022/05/08 04:38:52;;;;;;;23.27;8.15;;;3.60;92.70;;;;;;5070515;28;20040;-68
2022/05/08 04:41:18;;;;;;;36.03;9.23;;;3.70;92.60;;;;;;5077148;28;20123;-68
2022/05/08 04:43:43;;;;;;;33.88;8.98;;;3.70;92.80;;;;;;5091212;28;20035;-68
2022/05/08 04:46:12;;;;;;;25.55;8.65;;;3.80;92.90;;;;;;5085280;28;20063;-69
2022/05/08 04:48:38;;;;;;;30.95;8.68;;;3.90;93.00;;;;;;5090778;28;20030;-67
2022/05/08 04:51:04;;;;;;;29.55;7.70;;;3.90;93.10;;;;;;5090366;28;20484;-67
2022/05/08 04:53:33;;;;;;;24.58;9.00;;;4.10;93.20;;;;;;5076872;28;20031;-67
2022/05/08 04:55:59;;;;;;;33.10;9.50;;;4.10;93.30;;;;;;5092658;28;20036;-68
2022/05/08 04:58:29;;;;;;;30.60;8.55;;;4.20;93.40;;;;;;5090242;28;20039;-67
2022/05/08 05:00:58;;;;;;;29.08;8.70;;;4.30;93.50;;;;;;5090501;28;20430;-67
2022/05/08 05:03:24;;;;;;;26.35;9.18;;;4.30;93.60;;;;;;5081583;28;20032;-67
2022/05/08 05:05:49;;;;;;;34.42;8.73;;;4.40;93.60;;;;;;5092516;28;20020;-67
2022/05/08 05:08:15;;;;;;;33.90;9.23;;;4.40;93.60;;;;;;5094753;28;20032;-67
2022/05/08 05:10:40;;;;;;;27.27;8.48;;;4.50;93.70;;;;;;5089867;28;20145;-67
2022/05/08 05:13:06;;;;;;;40.05;9.13;;;4.50;93.70;;;;;;5077858;28;20402;-67
2022/05/08 05:15:32;;;;;;;30.65;8.55;;;4.60;93.70;;;;;;5095099;28;20068;-67
2022/05/08 05:18:00;;;;;;;28.77;8.18;;;4.70;93.70;;;;;;5094623;28;20079;-67
2022/05/08 05:20:25;;;;;;;25.38;8.60;;;4.80;93.70;;;;;;5093665;28;20398;-67
2022/05/08 05:22:51;;;;;;;26.48;8.43;;;4.80;93.60;;;;;;5093472;28;20039;-67
2022/05/08 05:25:16;;;;;;;18.85;7.30;;;4.80;93.40;;;;;;5083568;28;20032;-67
2022/05/08 05:27:42;;;;;;;18.88;7.65;;;4.90;93.40;;;;;;5090961;28;20514;-67
2022/05/08 05:30:09;;;;;;;30.75;7.45;;;5.00;93.40;;;;;;5094261;28;20028;-67
2022/05/08 05:32:34;;;;;;;28.75;7.32;;;5.10;93.40;;;;;;5075523;28;20036;-67
2022/05/08 05:35:00;;;;;;;23.23;7.30;;;5.20;93.30;;;;;;5093081;28;20039;-67
2022/05/08 05:37:25;;;;;;;25.73;7.40;;;5.20;93.20;;;;;;5083373;28;20036;-67
2022/05/08 05:39:50;;;;;;;16.98;7.07;;;5.40;93.10;;;;;;5093598;28;20475;-67
2022/05/08 05:42:16;;;;;;;19.52;7.10;;;5.50;93.10;;;;;;5093817;28;20058;-67
2022/05/08 05:44:41;;;;;;;24.58;6.35;;;5.60;93.00;;;;;;5092512;28;20070;-67
2022/05/08 05:49:51;;;;;;;24.23;5.35;;;5.90;92.50;;;;;;5093432;28;20031;-67
2022/05/08 05:52:16;;;;;;;22.80;6.78;;;6.10;91.70;;;;;;5083063;28;20041;-67
2022/05/08 05:54:42;;;;;;;18.00;5.30;;;6.20;91.50;;;;;;5087242;28;20696;-68
2022/05/08 05:57:07;;;;;;;17.25;5.18;;;6.30;91.10;;;;;;5093774;28;20078;-67
2022/05/08 05:59:33;;;;;;;15.20;4.68;;;6.50;90.60;;;;;;5093776;28;20086;-67
2022/05/08 06:01:58;;;;;;;16.73;5.45;;;6.70;90.30;;;;;;5092859;28;20131;-67
2022/05/08 06:04:24;;;;;;;19.25;4.70;;;6.80;89.60;;;;;;5092972;28;20032;-67
2022/05/08 06:06:49;;;;;;;11.65;3.83;;;6.70;88.70;;;;;;5093562;28;20503;-67
2022/05/08 06:09:15;;;;;;;11.95;4.53;;;7.00;88.70;;;;;;5093295;28;20020;-68
2022/05/08 06:11:40;;;;;;;15.65;4.68;;;7.10;88.20;;;;;;5084347;28;20071;-67
2022/05/08 06:14:06;;;;;;;16.15;4.30;;;7.20;87.60;;;;;;5093723;28;20039;-67
2022/05/08 06:16:31;;;;;;;12.52;3.45;;;7.40;87.30;;;;;;5093015;28;20111;-68
2022/05/08 06:19:00;;;;;;;16.55;3.35;;;7.50;86.80;;;;;;5088805;28;20040;-67
2022/05/08 06:21:26;;;;;;;16.73;3.75;;;7.70;86.80;;;;;;5092809;28;20048;-67
2022/05/08 06:23:54;;;;;;;17.45;3.53;;;7.80;86.10;;;;;;5091661;28;20038;-67
2022/05/08 06:26:19;;;;;;;15.68;3.53;;;7.80;85.80;;;;;;5090951;28;20025;-67
2022/05/08 06:28:45;;;;;;;12.32;3.17;;;7.90;85.60;;;;;;5092377;28;20085;-68
2022/05/08 06:31:11;;;;;;;16.75;3.53;;;8.00;84.90;;;;;;5074603;28;20119;-67
2022/05/08 06:33:36;;;;;;;20.30;3.80;;;8.20;84.90;;;;;;5091223;28;20470;-68
2022/05/08 06:36:02;;;;;;;13.70;2.80;;;8.30;83.60;;;;;;5092496;28;20071;-67
2022/05/08 06:38:27;;;;;;;15.38;2.85;;;8.50;82.70;;;;;;5092980;28;20052;-68
2022/05/08 06:40:53;;;;;;;10.82;3.35;;;8.40;82.00;;;;;;5092609;28;20052;-68
2022/05/08 06:43:18;;;;;;;11.07;2.63;;;8.60;82.10;;;;;;5093031;28;20102;-67
2022/05/08 06:45:44;;;;;;;10.68;2.55;;;8.70;81.50;;;;;;5066267;28;20020;-67
2022/05/08 06:48:09;;;;;;;15.85;3.08;;;9.00;81.50;;;;;;5092528;28;20024;-67
2022/05/08 06:50:35;;;;;;;14.27;3.20;;;9.00;80.20;;;;;;5085592;28;20032;-67
2022/05/08 06:53:01;;;;;;;11.50;2.20;;;8.90;80.00;;;;;;5092494;28;20046;-68
2022/05/08 06:55:27;;;;;;;11.60;3.03;;;8.90;80.10;;;;;;5089802;28;20028;-67
2022/05/08 06:57:52;;;;;;;22.48;2.97;;;9.00;79.40;;;;;;5101529;28;20092;-67
2022/05/08 07:03:04;;;;;;;14.30;2.35;;;9.00;79.20;;;;;;5087479;28;20101;-68
2022/05/08 07:05:30;;;;;;;17.58;2.70;;;9.00;78.70;;;;;;5091905;28;20448;-67
2022/05/08 07:07:56;;;;;;;15.20;3.03;;;9.30;78.60;;;;;;5090837;28;20032;-68
2022/05/08 07:10:21;;;;;;;16.92;3.10;;;9.60;78.40;;;;;;5088332;28;20111;-68
2022/05/08 07:12:47;;;;;;;10.07;2.50;;;9.90;76.90;;;;;;5092339;28;20386;-67
2022/05/08 07:15:12;;;;;;;14.55;3.20;;;10.00;75.20;;;;;;5092179;28;20165;-68
2022/05/08 07:17:38;;;;;;;13.35;2.80;;;10.10;75.70;;;;;;5091724;28;20122;-68
2022/05/08 07:20:04;;;;;;;12.30;2.35;;;10.70;74.70;;;;;;5091747;28;20459;-68
2022/05/08 07:22:32;;;;;;;12.52;2.90;;;11.20;72.90;;;;;;5091897;28;20032;-68
2022/05/08 07:24:58;;;;;;;13.57;2.63;;;11.10;71.70;;;;;;5089388;28;20032;-68
2022/05/08 07:27:23;;;;;;;12.68;2.80;;;11.10;70.90;;;;;;5091427;28;20425;-68
2022/05/08 07:29:52;;;;;;;15.25;2.72;;;11.20;71.90;;;;;;5091579;28;20031;-68
2022/05/08 07:32:17;;;;;;;14.93;2.60;;;10.70;71.60;;;;;;5091689;28;20109;-68
2022/05/08 07:37:27;;;;;;;13.77;2.72;;;11.00;68.70;;;;;;5089005;28;20561;-68
2022/05/08 07:39:52;;;;;;;14.60;2.58;;;10.80;70.80;;;;;;5091821;28;20032;-68
2022/05/08 07:42:18;;;;;;;14.80;2.50;;;10.40;71.20;;;;;;5087235;28;20372;-68
2022/05/08 07:44:43;;;;;;;11.82;2.50;;;10.30;71.30;;;;;;5086604;28;20032;-68
2022/05/08 07:47:09;;;;;;;7.78;2.33;;;10.60;71.20;;;;;;5073043;28;20056;-68
2022/05/08 07:49:34;;;;;;;7.55;2.30;;;11.00;71.00;;;;;;5087021;28;20025;-68
2022/05/08 07:52:00;;;;;;;14.57;2.17;;;10.70;69.60;;;;;;5061370;28;20031;-68
2022/05/08 07:54:25;;;;;;;13.02;2.42;;;11.10;70.00;;;;;;5086324;28;20671;-68
2022/05/08 07:56:51;;;;;;;16.25;2.55;;;11.40;68.40;;;;;;5089476;28;20028;-68
2022/05/08 07:59:16;;;;;;;9.40;2.33;;;11.40;66.50;;;;;;5069365;28;20020;-68
2022/05/08 08:01:42;;;;;;;13.63;2.97;;;11.50;65.50;;;;;;5072882;28;20024;-68
2022/05/08 08:04:10;;;;;;;9.57;2.00;;;11.50;66.20;;;;;;5091202;28;20047;-68
2022/05/08 08:06:36;;;;;;;12.50;2.45;;;11.70;66.20;;;;;;5090996;28;20027;-68
2022/05/08 08:09:02;;;;;;;10.52;2.60;;;12.10;65.80;;;;;;5088415;28;20396;-68
2022/05/08 08:11:28;;;;;;;17.08;2.53;;;12.50;65.60;;;;;;5089680;28;20090;-68
2022/05/08 08:13:54;;;;;;;9.07;2.05;;;12.60;63.60;;;;;;5091077;28;20395;-68
2022/05/08 08:16:20;;;;;;;17.52;2.60;;;12.60;61.50;;;;;;5086476;28;20422;-68
2022/05/08 08:18:45;;;;;;;11.07;2.20;;;12.10;61.00;;;;;;5088741;28;20032;-68
2022/05/08 08:21:13;;;;;;;8.15;2.08;;;12.40;61.20;;;;;;5072389;28;20031;-68
2022/05/08 08:23:40;;;;;;;9.65;2.13;;;12.70;61.70;;;;;;5090805;28;20017;-68
2022/05/08 08:26:07;;;;;;;8.35;2.72;;;12.70;61.80;;;;;;5086546;28;20094;-68
2022/05/08 08:28:33;;;;;;;14.00;2.70;;;12.70;62.20;;;;;;5091331;28;20031;-68
2022/05/08 08:30:58;;;;;;;15.48;2.38;;;12.40;62.10;;;;;;5090845;28;20032;-68
2022/05/08 08:33:26;;;;;;;12.98;2.20;;;12.80;64.30;;;;;;5085787;28;20398;-68
2022/05/08 08:35:52;;;;;;;11.75;2.15;;;12.80;61.20;;;;;;5088595;28;20062;-68
2022/05/08 08:38:17;;;;;;;13.27;2.47;;;13.20;61.40;;;;;;5090452;28;20415;-68
2022/05/08 08:40:47;;;;;;;13.40;2.45;;;12.90;58.70;;;;;;5089508;28;20107;-68
2022/05/08 08:43:16;;;;;;;10.98;2.00;;;13.00;59.40;;;;;;5088099;28;20085;-68
2022/05/08 08:48:27;;;;;;;7.60;2.05;;;13.10;55.40;;;;;;5088455;28;20115;-68
2022/05/08 08:50:54;;;;;;;15.18;2.42;;;13.50;57.70;;;;;;5077756;28;20047;-68
2022/05/08 08:53:20;;;;;;;6.50;2.10;;;13.30;59.00;;;;;;5088348;28;20070;-68
2022/05/08 08:55:52;;;;;;;9.80;1.90;;;13.60;59.00;;;;;;5089237;28;20475;-68
2022/05/08 08:58:18;;;;;;;7.78;2.47;;;14.10;54.40;;;;;;5090850;28;20035;-68
2022/05/08 09:00:49;;;;;;;10.05;2.30;;;14.30;53.30;;;;;;5089417;28;20074;-68
2022/05/08 09:03:26;;;;;;;14.93;2.60;;;13.90;53.40;;;;;;5083021;28;20040;-68
2022/05/08 09:05:59;;;;;;;12.77;2.38;;;14.50;55.20;;;;;;5089884;28;20669;-68
2022/05/08 09:08:33;;;;;;;10.25;2.35;;;14.60;54.50;;;;;;5087137;28;20031;-68
2022/05/08 09:10:59;;;;;;;12.85;2.80;;;15.00;53.90;;;;;;5089529;28;20036;-68
2022/05/08 09:13:31;;;;;;;11.63;2.08;;;14.50;53.30;;;;;;5090875;28;20064;-68
2022/05/08 09:16:07;;;;;;;6.43;2.25;;;14.40;53.40;;;;;;5090827;28;20039;-68
2022/05/08 09:18:44;;;;;;;10.95;2.65;;;14.60;52.20;;;;;;5060022;28;20032;-68
2022/05/08 09:24:11;;;;;;;11.95;2.13;;;15.00;51.40;;;;;;5087547;28;20040;-68
2022/05/08 09:26:36;;;;;;;8.73;2.08;;;14.60;52.90;;;;;;5088103;28;20063;-68
2022/05/08 09:29:03;;;;;;;11.32;2.55;;;14.70;51.20;;;;;;5090595;28;20064;-68
2022/05/08 09:31:39;;;;;;;8.45;2.10;;;15.30;51.40;;;;;;5089927;28;20043;-68
2022/05/08 09:34:04;;;;;;;10.85;2.33;;;15.00;50.00;;;;;;5089295;28;20082;-68
2022/05/08 09:36:30;;;;;;;9.35;2.40;;;14.70;50.20;;;;;;5096991;28;20040;-68
2022/05/08 09:39:00;;;;;;;8.63;1.77;;;14.60;49.90;;;;;;5089880;28;20471;-68
2022/05/08 09:41:28;;;;;;;10.38;2.53;;;14.20;50.40;;;;;;5085528;28;20449;-68
2022/05/08 09:43:55;;;;;;;6.07;1.75;;;14.40;51.80;;;;;;5089977;28;20060;-68
2022/05/08 09:46:21;;;;;;;11.60;1.83;;;14.50;49.90;;;;;;5090163;28;20032;-68
2022/05/08 09:48:48;;;;;;;7.07;2.13;;;14.50;51.00;;;;;;5075836;28;20021;-68
2022/05/08 09:51:15;;;;;;;11.48;2.20;;;14.30;50.70;;;;;;5090594;28;20024;-68
2022/05/08 09:53:42;;;;;;;11.60;2.35;;;14.60;50.40;;;;;;5093773;28;20485;-68
2022/05/08 09:56:10;;;;;;;9.77;2.42;;;15.00;50.60;;;;;;5089565;28;20038;-68
2022/05/08 09:58:37;;;;;;;16.38;2.67;;;15.20;49.90;;;;;;5092500;28;20040;-68
2022/05/08 10:01:03;;;;;;;19.98;2.92;;;15.10;50.90;;;;;;5093335;28;20096;-68
2022/05/08 10:03:30;;;;;;;10.48;2.60;;;15.20;49.70;;;;;;5092689;28;20081;-68
2022/05/08 10:05:57;;;;;;;11.90;2.30;;;15.30;50.10;;;;;;5093243;28;20107;-68
2022/05/08 10:08:25;;;;;;;9.00;2.47;;;15.50;48.20;;;;;;5088518;28;20044;-68
2022/05/08 10:13:53;;;;;;;12.10;2.33;;;16.70;48.50;;;;;;5093423;28;20042;-68
2022/05/08 10:16:56;;;;;;;6.03;1.92;;;16.20;47.60;;;;;;5092227;28;20465;-68
2022/05/08 10:19:27;;;;;;;9.57;2.47;;;16.50;48.70;;;;;;5093139;28;20517;-68
2022/05/08 10:22:06;;;;;;;12.45;2.53;;;16.10;47.70;;;;;;5092946;28;20024;-68
2022/05/08 10:24:51;;;;;;;14.07;2.63;;;16.30;47.50;;;;;;5091692;28;20103;-68
2022/05/08 10:27:31;;;;;;;10.13;2.50;;;16.10;48.30;;;;;;5084320;28;20032;-68
2022/05/08 10:29:56;;;;;;;11.40;2.08;;;16.70;49.00;;;;;;5093199;28;20028;-68
2022/05/08 10:32:33;;;;;;;11.20;2.28;;;16.50;47.50;;;;;;5088125;28;20560;-68
2022/05/08 10:35:20;;;;;;;10.38;2.47;;;16.60;45.50;;;;;;5079766;28;20024;-69
2022/05/08 10:37:51;;;;;;;9.88;2.03;;;16.90;46.10;;;;;;5093263;28;20028;-69
2022/05/08 10:40:22;;;;;;;8.90;2.20;;;17.00;46.60;;;;;;5092636;28;20063;-69
2022/05/08 10:42:54;;;;;;;7.35;2.33;;;16.80;45.80;;;;;;5087965;28;20052;-69
2022/05/08 10:45:33;;;;;;;8.13;2.13;;;16.90;46.40;;;;;;5092977;28;20046;-69
2022/05/08 10:48:21;;;;;;;11.77;2.28;;;17.20;45.80;;;;;;5064402;28;20111;-69
2022/05/08 10:50:48;;;;;;;9.60;2.00;;;17.20;46.10;;;;;;5081114;28;20020;-69
2022/05/08 10:53:22;;;;;;;10.88;2.28;;;17.40;44.80;;;;;;5074457;28;20074;-69
2022/05/08 10:55:47;;;;;;;7.25;2.00;;;17.10;43.50;;;;;;5090925;28;20462;-69
2022/05/08 10:58:13;;;;;;;5.88;2.13;;;17.00;43.80;;;;;;5092306;28;20138;-68
2022/05/08 11:00:38;;;;;;;9.07;2.03;;;17.00;42.80;;;;;;5084734;28;20509;-69
2022/05/08 11:03:04;;;;;;;8.80;1.92;;;17.60;43.10;;;;;;5091818;28;20479;-69
2022/05/08 11:05:32;;;;;;;9.50;1.77;;;18.10;41.50;;;;;;5092468;28;20390;-69
2022/05/08 11:07:58;;;;;;;10.88;2.40;;;18.10;44.10;;;;;;5089373;28;20095;-69
2022/05/08 11:10:32;;;;;;;8.82;1.98;;;18.30;42.40;;;;;;5091694;28;20381;-69
2022/05/08 11:13:11;;;;;;;6.03;2.10;;;18.10;43.50;;;;;;5091600;28;20032;-69
2022/05/08 11:15:45;;;;;;;10.18;2.55;;;18.10;42.00;;;;;;5092356;28;20055;-69
2022/05/08 11:18:20;;;;;;;15.38;2.72;;;18.50;43.00;;;;;;5091819;28;20463;-69
2022/05/08 11:20:48;;;;;;;8.20;2.08;;;18.80;41.00;;;;;;5091683;28;20123;-69
2022/05/08 11:23:18;;;;;;;13.02;2.00;;;18.90;43.10;;;;;;5088288;28;20504;-69
2022/05/08 11:25:46;;;;;;;9.98;2.72;;;18.70;43.40;;;;;;5084168;28;20374;-69
2022/05/08 11:28:15;;;;;;;8.45;2.90;;;18.70;41.90;;;;;;5092547;28;20028;-69
2022/05/08 11:30:42;;;;;;;8.35;2.45;;;19.00;41.90;;;;;;5090910;28;20048;-69
2022/05/08 11:36:05;;;;;;;9.02;2.00;;;19.70;38.40;;;;;;5087547;28;20050;-69
2022/05/08 11:38:50;;;;;;;6.65;1.90;;;19.50;38.90;;;;;;5092124;28;20150;-69
2022/05/08 11:41:21;;;;;;;6.00;1.75;;;19.30;37.70;;;;;;5079764;28;20109;-69
2022/05/08 11:43:47;;;;;;;;;;;19.50;38.10;;;;;;5092191;28;20282;-69
2022/05/08 11:46:31;;;;;;;9.05;2.28;;;19.40;39.10;;;;;;5088938;28;19926;-69
2022/05/08 11:48:57;;;;;;;8.82;2.50;;;20.20;38.10;;;;;;5093329;28;20028;-69
2022/05/08 11:51:22;;;;;;;9.73;2.40;;;20.10;36.20;;;;;;5083314;28;20067;-69
2022/05/08 11:53:50;;;;;;;8.60;1.88;;;20.50;36.60;;;;;;5091261;28;20046;-69
2022/05/08 11:56:30;;;;;;;4.60;1.50;;;19.80;34.60;;;;;;5088947;28;20031;-69
2022/05/08 11:58:58;;;;;;;9.32;2.38;;;19.80;33.60;;;;;;5083895;28;20475;-69
2022/05/08 12:01:29;;;;;;;8.30;2.10;;;20.20;35.00;;;;;;5091305;28;20118;-69
2022/05/08 12:03:56;;;;;;;;;;;20.40;35.90;;;;;;5090308;28;20035;-69
2022/05/08 12:06:21;;;;;;;9.60;2.63;;;20.10;35.80;;;;;;5091028;28;19915;-69
2022/05/08 12:08:48;;;;;;;9.23;2.13;;;20.00;35.20;;;;;;5082986;28;20395;-69
2022/05/08 12:11:33;;;;;;;6.15;1.98;;;19.70;36.50;;;;;;5090726;28;20043;-69
2022/05/08 12:14:04;;;;;;;8.07;2.78;;;20.30;34.20;;;;;;5089787;28;20110;-69
2022/05/08 12:16:31;;;;;;;11.35;2.28;;;20.50;33.90;;;;;;5085460;28;20484;-69
2022/05/08 12:19:11;;;;;;;7.13;2.17;;;21.20;35.00;;;;;;5086221;28;20463;-69
2022/05/08 12:21:40;;;;;;;7.90;2.28;;;20.70;33.20;;;;;;5090904;28;20035;-69
2022/05/08 12:24:10;;;;;;;8.50;1.88;;;19.60;33.70;;;;;;5088726;28;20032;-69
2022/05/08 12:26:36;;;;;;;10.82;2.67;;;19.60;32.80;;;;;;5088938;28;20035;-69
2022/05/08 12:29:01;;;;;;;8.05;2.03;;;20.60;31.90;;;;;;5091080;28;20032;-69
2022/05/08 12:31:27;;;;;;;6.70;1.88;;;19.70;33.10;;;;;;5085388;28;20028;-69
2022/05/08 12:33:52;;;;;;;6.97;2.10;;;20.40;31.80;;;;;;5082857;28;20035;-69
2022/05/08 12:36:18;;;;;;;7.38;1.90;;;21.40;31.00;;;;;;5090369;28;20016;-69
2022/05/08 12:38:43;;;;;;;7.50;1.63;;;22.20;31.30;;;;;;5075139;28;20023;-69
2022/05/08 12:41:12;;;;;;;9.70;1.70;;;21.60;29.70;;;;;;5086814;28;20153;-69
2022/05/08 12:43:38;;;;;;;5.32;1.52;;;20.60;29.90;;;;;;5085341;28;20044;-69
2022/05/08 12:46:03;;;;;;;7.10;1.80;;;20.50;30.80;;;;;;5087302;28;20030;-69
2022/05/08 12:48:29;;;;;;;7.25;2.03;;;21.10;30.20;;;;;;5087935;28;20374;-69
2022/05/08 12:50:54;;;;;;;10.93;2.17;;;21.30;31.80;;;;;;5094885;28;20836;-69
2022/05/08 12:53:20;;;;;;;6.65;1.52;;;21.70;33.40;;;;;;5090720;28;20024;-69
2022/05/08 12:55:45;;;;;;;8.25;2.10;;;22.40;32.10;;;;;;5089239;28;20050;-69
2022/05/08 13:00:55;;;;;;;6.53;2.08;;;23.30;29.50;;;;;;5086098;28;20081;-69
2022/05/08 13:03:21;;;;;;;7.07;2.08;;;21.30;32.80;;;;;;5089804;28;20032;-70
2022/05/08 13:05:49;;;;;;;7.93;2.20;;;21.80;30.70;;;;;;5065313;28;20098;-69
2022/05/08 13:08:15;;;;;;;10.95;3.08;;;22.40;31.30;;;;;;5090854;28;20032;-69
2022/05/08 13:10:41;;;;;;;6.97;2.20;;;22.50;30.60;;;;;;5090351;28;20032;-69
2022/05/08 13:13:06;;;;;;;5.05;2.00;;;21.50;30.50;;;;;;5090246;28;20035;-69
2022/05/08 13:15:32;;;;;;;8.70;2.17;;;21.50;31.70;;;;;;5084191;28;20032;-69
2022/05/08 13:17:57;;;;;;;7.30;2.30;;;20.70;32.60;;;;;;5089517;28;20471;-69